createdAt,value
2023-03-11T00:02:08.954Z,99.90
2023-03-11T00:04:35.922Z,99.90
2023-03-11T00:07:05.685Z,99.90
2023-03-11T00:09:32.410Z,99.90
2023-03-11T00:11:59.125Z,99.90
2023-03-11T00:14:25.921Z,99.90
2023-03-11T00:16:52.738Z,99.90
2023-03-11T00:19:19.518Z,99.90
2023-03-11T00:21:46.406Z,99.90
2023-03-11T00:24:13.177Z,99.90
2023-03-11T00:26:39.966Z,99.90
2023-03-11T00:29:06.692Z,99.90
2023-03-11T00:31:33.409Z,99.90
2023-03-11T00:34:00.133Z,99.90
2023-03-11T00:36:35.949Z,99.90
2023-03-11T00:39:06.567Z,99.90
2023-03-11T00:41:34.652Z,99.90
2023-03-11T00:44:01.386Z,99.90
2023-03-11T00:46:29.889Z,99.90
2023-03-11T00:48:57.233Z,99.90
2023-03-11T00:51:24.020Z,99.90
2023-03-11T00:53:50.808Z,99.90
2023-03-11T00:56:17.598Z,99.90
2023-03-11T00:58:45.758Z,99.90
2023-03-11T01:01:17.930Z,99.90
2023-03-11T01:03:44.791Z,99.90
2023-03-11T01:06:12.448Z,99.90
2023-03-11T01:08:39.449Z,99.90
2023-03-11T01:11:07.955Z,99.90
2023-03-11T01:13:35.121Z,99.90
2023-03-11T01:16:02.404Z,99.90
2023-03-11T01:18:29.158Z,99.90
2023-03-11T01:20:55.910Z,99.90
2023-03-11T01:23:23.291Z,99.90
2023-03-11T01:25:50.242Z,99.90
2023-03-11T01:28:17.054Z,99.90
2023-03-11T01:30:44.754Z,99.90
2023-03-11T01:33:17.444Z,99.90
2023-03-11T01:35:44.767Z,99.90
2023-03-11T01:38:13.115Z,99.90
2023-03-11T01:40:50.862Z,99.90
2023-03-11T01:43:41.734Z,99.90
2023-03-11T01:46:27.743Z,99.90
2023-03-11T01:48:57.445Z,99.90
2023-03-11T01:51:38.359Z,99.90
2023-03-11T01:54:10.637Z,99.90
2023-03-11T01:56:39.549Z,99.90
2023-03-11T01:59:08.993Z,99.90
2023-03-11T02:01:43.845Z,99.90
2023-03-11T02:04:10.565Z,99.90
2023-03-11T02:06:38.018Z,99.90
2023-03-11T02:09:05.172Z,99.90
2023-03-11T02:11:31.953Z,99.90
2023-03-11T02:14:03.352Z,99.90
2023-03-11T02:16:30.276Z,99.90
2023-03-11T02:19:04.753Z,99.90
2023-03-11T02:21:34.299Z,99.90
2023-03-11T02:24:23.791Z,99.90
2023-03-11T02:27:06.847Z,99.90
2023-03-11T02:29:34.678Z,99.90
2023-03-11T02:32:05.269Z,99.90
2023-03-11T02:34:34.682Z,99.90
2023-03-11T02:37:04.326Z,99.90
2023-03-11T02:39:33.145Z,99.90
2023-03-11T02:42:02.420Z,99.90
2023-03-11T02:44:29.795Z,99.90
2023-03-11T02:46:56.882Z,99.90
2023-03-11T02:49:24.076Z,99.90
2023-03-11T02:51:52.386Z,99.90
2023-03-11T02:54:19.148Z,99.90
2023-03-11T02:56:45.823Z,99.90
2023-03-11T02:59:12.544Z,99.90
2023-03-11T03:01:39.290Z,99.90
2023-03-11T03:04:06.107Z,99.90
2023-03-11T03:06:33.096Z,99.90
2023-03-11T03:08:59.784Z,99.90
2023-03-11T03:11:26.600Z,99.90
2023-03-11T03:13:53.324Z,99.90
2023-03-11T03:16:20.081Z,99.90
2023-03-11T03:18:46.923Z,99.90
2023-03-11T03:21:13.632Z,99.90
2023-03-11T03:23:40.485Z,99.90
2023-03-11T03:26:07.211Z,99.90
2023-03-11T03:28:33.955Z,99.90
2023-03-11T03:31:05.666Z,99.90
2023-03-11T03:33:32.874Z,99.90
2023-03-11T03:35:59.637Z,99.90
2023-03-11T03:38:26.355Z,99.90
2023-03-11T03:40:53.004Z,99.90
2023-03-11T03:43:19.681Z,99.90
2023-03-11T03:45:54.662Z,99.90
2023-03-11T03:48:21.395Z,99.90
2023-03-11T03:50:48.088Z,99.90
2023-03-11T03:53:14.804Z,99.90
2023-03-11T03:55:41.493Z,99.90
2023-03-11T03:58:08.357Z,99.90
2023-03-11T04:00:35.492Z,99.90
2023-03-11T04:03:02.379Z,99.90
2023-03-11T04:05:29.236Z,99.90
2023-03-11T04:07:55.901Z,99.90
2023-03-11T04:10:22.777Z,99.90
2023-03-11T04:12:49.518Z,99.90
2023-03-11T04:15:16.449Z,99.90
2023-03-11T04:17:43.199Z,99.90
2023-03-11T04:20:10.575Z,99.90
2023-03-11T04:22:37.402Z,99.90
2023-03-11T04:25:04.341Z,99.90
2023-03-11T04:27:31.075Z,99.90
2023-03-11T04:29:57.727Z,99.90
2023-03-11T04:32:26.569Z,99.90
2023-03-11T04:34:53.266Z,99.90
2023-03-11T04:37:20.069Z,99.90
2023-03-11T04:39:46.810Z,99.90
2023-03-11T04:42:14.121Z,99.90
2023-03-11T04:44:40.848Z,99.90
2023-03-11T04:47:07.657Z,99.90
2023-03-11T04:49:34.662Z,99.90
2023-03-11T04:52:01.384Z,99.90
2023-03-11T04:54:28.317Z,99.90
2023-03-11T04:56:55.088Z,99.90
2023-03-11T04:59:21.776Z,99.90
2023-03-11T05:01:48.698Z,99.90
2023-03-11T05:04:15.553Z,99.90
2023-03-11T05:06:42.313Z,99.90
2023-03-11T05:09:09.053Z,99.90
2023-03-11T05:11:36.073Z,99.90
2023-03-11T05:14:02.812Z,99.90
2023-03-11T05:16:30.020Z,99.90
2023-03-11T05:18:56.738Z,99.90
2023-03-11T05:21:23.437Z,99.90
2023-03-11T05:23:50.147Z,99.90
2023-03-11T05:26:16.890Z,99.90
2023-03-11T05:28:43.598Z,99.90
2023-03-11T05:31:11.184Z,99.90
2023-03-11T05:33:37.930Z,99.90
2023-03-11T05:36:07.541Z,99.90
2023-03-11T05:38:36.040Z,99.90
2023-03-11T05:41:02.906Z,99.90
2023-03-11T05:43:29.851Z,99.90
2023-03-11T05:45:56.593Z,99.90
2023-03-11T05:48:23.423Z,99.90
2023-03-11T05:50:50.148Z,99.90
2023-03-11T05:53:16.894Z,99.90
2023-03-11T05:55:43.593Z,99.90
2023-03-11T05:58:10.312Z,99.90
2023-03-11T06:00:37.140Z,99.90
2023-03-11T06:03:03.902Z,99.90
2023-03-11T06:05:30.655Z,99.90
2023-03-11T06:07:57.459Z,99.90
2023-03-11T06:10:24.197Z,99.90
2023-03-11T06:12:50.897Z,99.90
2023-03-11T06:15:17.672Z,99.90
2023-03-11T06:17:44.381Z,99.90
2023-03-11T06:20:12.079Z,99.90
2023-03-11T06:22:40.286Z,99.90
2023-03-11T06:25:08.054Z,99.90
2023-03-11T06:27:34.832Z,99.90
2023-03-11T06:30:01.745Z,99.90
2023-03-11T06:32:29.722Z,99.90
2023-03-11T06:34:56.581Z,99.90
2023-03-11T06:37:25.098Z,99.90
2023-03-11T06:39:55.410Z,99.90
2023-03-11T06:42:25.488Z,99.90
2023-03-11T06:44:52.190Z,99.90
2023-03-11T06:47:18.942Z,99.90
2023-03-11T06:49:45.638Z,99.90
2023-03-11T06:52:12.400Z,99.90
2023-03-11T06:54:39.060Z,99.90
2023-03-11T06:57:08.671Z,99.90
2023-03-11T06:59:36.076Z,99.90
2023-03-11T07:02:04.082Z,99.90
2023-03-11T07:04:31.341Z,99.90
2023-03-11T07:06:58.206Z,99.90
2023-03-11T07:09:25.236Z,99.90
2023-03-11T07:11:52.611Z,99.90
2023-03-11T07:14:19.567Z,99.90
2023-03-11T07:16:46.310Z,99.90
2023-03-11T07:19:14.325Z,99.90
2023-03-11T07:21:41.132Z,99.90
2023-03-11T07:24:08.062Z,99.90
2023-03-11T07:26:36.281Z,99.90
2023-03-11T07:29:03.201Z,99.80
2023-03-11T07:31:32.319Z,99.90
2023-03-11T07:34:00.968Z,98.80
2023-03-11T07:36:28.806Z,99.30
2023-03-11T07:39:04.215Z,99.70
2023-03-11T07:41:33.374Z,98.60
2023-03-11T07:44:01.587Z,99.00
2023-03-11T07:46:30.161Z,98.20
2023-03-11T07:48:57.346Z,97.60
2023-03-11T07:51:29.316Z,96.70
2023-03-11T07:53:58.737Z,97.40
2023-03-11T07:56:27.997Z,97.60
2023-03-11T07:58:55.104Z,96.60
2023-03-11T08:01:24.170Z,96.90
2023-03-11T08:03:56.841Z,95.50
2023-03-11T08:06:27.354Z,95.40
2023-03-11T08:08:54.085Z,95.40
2023-03-11T08:11:21.471Z,95.10
2023-03-11T08:13:48.812Z,95.10
2023-03-11T08:16:18.631Z,94.90
2023-03-11T08:18:47.754Z,94.80
2023-03-11T08:21:17.538Z,94.80
2023-03-11T08:23:46.082Z,94.50
2023-03-11T08:26:15.838Z,93.40
2023-03-11T08:28:42.750Z,92.30
2023-03-11T08:31:21.591Z,92.70
2023-03-11T08:33:51.030Z,92.50
2023-03-11T08:36:19.187Z,92.20
2023-03-11T08:38:46.260Z,92.10
2023-03-11T08:41:13.520Z,91.40
2023-03-11T08:43:40.350Z,90.00
2023-03-11T08:46:07.767Z,91.90
2023-03-11T08:48:36.889Z,92.00
2023-03-11T08:51:10.221Z,92.80
2023-03-11T08:53:37.714Z,89.60
2023-03-11T08:56:05.166Z,90.00
2023-03-11T08:58:32.043Z,80.20
2023-03-11T09:00:59.217Z,83.60
2023-03-11T09:03:25.985Z,83.80
2023-03-11T09:06:07.836Z,85.60
2023-03-11T09:08:35.095Z,83.20
2023-03-11T09:11:02.086Z,83.50
2023-03-11T09:13:29.300Z,78.10
2023-03-11T09:15:56.066Z,78.90
2023-03-11T09:18:22.998Z,74.90
2023-03-11T09:20:50.034Z,71.20
2023-03-11T09:23:18.337Z,69.30
2023-03-11T09:25:45.522Z,68.80
2023-03-11T09:28:12.217Z,70.50
2023-03-11T09:30:39.002Z,70.70
2023-03-11T09:33:05.758Z,68.40
2023-03-11T09:35:32.683Z,68.00
2023-03-11T09:37:59.429Z,67.80
2023-03-11T09:40:34.619Z,67.70
2023-03-11T09:43:21.506Z,66.60
2023-03-11T09:46:03.824Z,69.50
2023-03-11T09:48:39.223Z,69.40
2023-03-11T09:51:15.557Z,72.50
2023-03-11T09:53:49.725Z,71.20
2023-03-11T09:56:18.643Z,68.80
2023-03-11T09:58:50.782Z,71.80
2023-03-11T10:01:27.550Z,70.30
2023-03-11T10:04:02.135Z,67.70
2023-03-11T10:06:32.114Z,66.20
2023-03-11T10:09:26.369Z,64.00
2023-03-11T10:12:21.532Z,61.60
2023-03-11T10:15:01.372Z,63.40
2023-03-11T10:17:49.249Z,64.00
2023-03-11T10:20:29.782Z,64.20
2023-03-11T10:23:08.882Z,62.50
2023-03-11T10:25:38.647Z,63.30
2023-03-11T10:28:12.723Z,63.50
2023-03-11T10:30:49.790Z,61.40
2023-03-11T10:33:46.571Z,59.70
2023-03-11T10:36:19.695Z,59.00
2023-03-11T10:38:51.917Z,60.70
2023-03-11T10:41:30.122Z,65.30
2023-03-11T10:44:10.106Z,62.80
2023-03-11T10:46:36.814Z,63.20
2023-03-11T10:49:05.382Z,61.20
2023-03-11T10:51:35.582Z,61.60
2023-03-11T10:54:03.664Z,59.30
2023-03-11T10:56:39.458Z,59.10
2023-03-11T10:59:22.685Z,61.80
2023-03-11T11:01:59.309Z,63.90
2023-03-11T11:04:39.613Z,64.80
2023-03-11T11:07:29.173Z,66.10
2023-03-11T11:10:19.687Z,64.50
2023-03-11T11:12:52.581Z,61.50
2023-03-11T11:15:51.131Z,55.50
2023-03-11T11:18:49.356Z,55.80
2023-03-11T11:21:28.744Z,54.90
2023-03-11T11:24:22.475Z,54.30
2023-03-11T11:27:18.848Z,54.20
2023-03-11T11:29:46.822Z,50.10
2023-03-11T11:32:19.771Z,48.90
2023-03-11T11:35:03.421Z,53.30
2023-03-11T11:37:33.846Z,52.80
2023-03-11T11:40:21.494Z,54.40
2023-03-11T11:43:07.512Z,54.30
2023-03-11T11:45:44.399Z,54.40
2023-03-11T11:48:16.931Z,53.00
2023-03-11T11:50:48.359Z,53.30
2023-03-11T11:53:19.609Z,52.10
2023-03-11T11:55:52.569Z,52.40
2023-03-11T11:58:19.684Z,51.90
2023-03-11T12:01:14.023Z,53.90
2023-03-11T12:04:25.949Z,53.40
2023-03-11T12:07:04.846Z,52.10
2023-03-11T12:09:56.254Z,51.40
2023-03-11T12:12:37.769Z,50.60
2023-03-11T12:15:19.636Z,52.00
2023-03-11T12:17:48.884Z,50.40
2023-03-11T12:20:33.338Z,50.10
2023-03-11T12:23:28.915Z,48.50
2023-03-11T12:26:01.532Z,49.40
2023-03-11T12:28:59.261Z,49.40
2023-03-11T12:31:30.458Z,47.20
2023-03-11T12:34:03.907Z,47.80
2023-03-11T12:36:34.151Z,51.70
2023-03-11T12:39:05.643Z,51.20
2023-03-11T12:41:42.091Z,53.20
2023-03-11T12:44:21.624Z,50.40
2023-03-11T12:46:54.269Z,49.80
2023-03-11T12:49:30.676Z,49.70
2023-03-11T12:52:12.321Z,47.80
2023-03-11T12:54:40.943Z,50.00
2023-03-11T12:57:19.612Z,48.20
2023-03-11T13:00:17.425Z,46.00
2023-03-11T13:03:08.887Z,48.30
2023-03-11T13:05:51.783Z,46.60
2023-03-11T13:08:45.391Z,45.70
2023-03-11T13:11:32.956Z,47.20
2023-03-11T13:14:18.553Z,48.80
2023-03-11T13:16:46.188Z,49.80
2023-03-11T13:19:32.106Z,46.70
2023-03-11T13:22:01.698Z,44.30
2023-03-11T13:24:31.178Z,45.70
2023-03-11T13:27:04.427Z,44.30
2023-03-11T13:29:47.698Z,46.20
2023-03-11T13:32:51.408Z,46.40
2023-03-11T13:35:27.357Z,45.70
2023-03-11T13:38:33.290Z,44.40
2023-03-11T13:41:03.362Z,44.90
2023-03-11T13:43:30.406Z,42.80
2023-03-11T13:46:26.822Z,42.60
2023-03-11T13:49:02.941Z,42.20
2023-03-11T13:51:43.530Z,40.90
2023-03-11T13:54:23.584Z,39.20
2023-03-11T13:56:58.491Z,38.30
2023-03-11T13:59:33.739Z,35.90
2023-03-11T14:02:13.053Z,33.70
2023-03-11T14:04:42.130Z,34.10
2023-03-11T14:07:20.167Z,33.50
2023-03-11T14:09:46.959Z,31.40
2023-03-11T14:12:16.077Z,32.30
2023-03-11T14:14:50.915Z,31.20
2023-03-11T14:17:19.799Z,32.20
2023-03-11T14:20:07.017Z,31.30
2023-03-11T14:22:34.383Z,31.80
2023-03-11T14:25:06.104Z,31.80
2023-03-11T14:27:32.980Z,31.20
2023-03-11T14:29:59.873Z,32.90
2023-03-11T14:32:33.330Z,33.10
2023-03-11T14:35:00.805Z,33.90
2023-03-11T14:37:31.911Z,34.80
2023-03-11T14:39:58.674Z,36.60
2023-03-11T14:42:26.826Z,36.60
2023-03-11T14:45:05.146Z,36.00
2023-03-11T14:47:40.508Z,35.70
2023-03-11T14:50:13.600Z,37.50
2023-03-11T14:52:58.960Z,37.70
2023-03-11T14:55:33.847Z,39.80
2023-03-11T14:58:11.575Z,39.90
2023-03-11T15:00:42.976Z,42.50
2023-03-11T15:03:26.672Z,40.50
2023-03-11T15:06:16.228Z,39.50
2023-03-11T15:08:45.220Z,38.80
2023-03-11T15:11:15.529Z,39.90
2023-03-11T15:13:44.562Z,41.30
2023-03-11T15:16:28.503Z,41.50
2023-03-11T15:18:55.272Z,41.70
2023-03-11T15:21:24.665Z,43.80
2023-03-11T15:24:05.264Z,43.30
2023-03-11T15:26:35.145Z,43.60
2023-03-11T15:29:15.345Z,44.90
2023-03-11T15:31:44.969Z,45.80
2023-03-11T15:34:17.499Z,46.10
2023-03-11T15:36:48.775Z,46.00
2023-03-11T15:39:19.327Z,46.30
2023-03-11T15:42:06.214Z,47.30
2023-03-11T15:44:52.645Z,46.40
2023-03-11T15:47:22.120Z,48.10
2023-03-11T15:49:50.414Z,48.30
2023-03-11T15:52:19.257Z,47.60
2023-03-11T15:54:55.196Z,47.40
2023-03-11T15:57:26.099Z,48.10
2023-03-11T15:59:55.011Z,49.10
2023-03-11T16:02:28.362Z,49.10
2023-03-11T16:04:56.044Z,49.00
2023-03-11T16:07:38.142Z,48.70
2023-03-11T16:10:07.264Z,48.90
2023-03-11T16:12:34.167Z,48.40
2023-03-11T16:15:00.963Z,49.10
2023-03-11T16:17:39.559Z,50.40
2023-03-11T16:20:13.732Z,50.80
2023-03-11T16:22:40.523Z,51.40
2023-03-11T16:25:12.128Z,52.50
2023-03-11T16:27:38.866Z,52.00
2023-03-11T16:30:06.105Z,52.50
2023-03-11T16:32:32.793Z,53.20
2023-03-11T16:34:59.468Z,54.80
2023-03-11T16:37:26.237Z,53.70
2023-03-11T16:39:53.642Z,54.10
2023-03-11T16:42:23.999Z,54.30
2023-03-11T16:44:50.729Z,55.20
2023-03-11T16:47:18.176Z,55.70
2023-03-11T16:49:45.348Z,55.80
2023-03-11T16:52:12.021Z,57.40
2023-03-11T16:54:38.744Z,60.20
2023-03-11T16:57:05.481Z,60.90
2023-03-11T16:59:32.211Z,61.50
2023-03-11T17:01:59.780Z,62.50
2023-03-11T17:04:26.511Z,63.80
2023-03-11T17:06:53.215Z,65.50
2023-03-11T17:09:20.744Z,67.30
2023-03-11T17:11:49.836Z,68.70
2023-03-11T17:14:17.454Z,69.90
2023-03-11T17:16:45.294Z,72.20
2023-03-11T17:19:12.255Z,74.40
2023-03-11T17:21:39.603Z,77.00
2023-03-11T17:24:07.198Z,79.20
2023-03-11T17:26:34.086Z,79.20
2023-03-11T17:29:00.832Z,81.10
2023-03-11T17:31:27.587Z,82.20
2023-03-11T17:33:54.751Z,85.30
2023-03-11T17:36:21.542Z,85.00
2023-03-11T17:38:51.210Z,86.60
2023-03-11T17:41:18.061Z,86.40
2023-03-11T17:43:46.060Z,87.10
2023-03-11T17:46:15.689Z,85.00
2023-03-11T17:48:44.751Z,86.70
2023-03-11T17:51:16.923Z,87.40
2023-03-11T17:53:46.024Z,87.60
2023-03-11T17:56:14.270Z,87.90
2023-03-11T17:58:41.437Z,89.30
2023-03-11T18:01:14.456Z,90.40
2023-03-11T18:03:41.506Z,91.10
2023-03-11T18:06:08.956Z,91.00
2023-03-11T18:08:36.906Z,91.30
2023-03-11T18:11:06.603Z,92.20
2023-03-11T18:13:34.531Z,93.70
2023-03-11T18:16:04.569Z,94.80
2023-03-11T18:18:32.969Z,95.20
2023-03-11T18:21:07.427Z,98.00
2023-03-11T18:23:34.567Z,99.90
2023-03-11T18:26:03.426Z,99.90
2023-03-11T18:28:30.680Z,99.90
2023-03-11T18:30:59.116Z,99.90
2023-03-11T18:33:25.952Z,99.90
2023-03-11T18:35:53.317Z,99.90
2023-03-11T18:38:20.052Z,99.90
2023-03-11T18:40:46.831Z,99.90
2023-03-11T18:43:16.733Z,99.90
2023-03-11T18:45:43.496Z,99.90
2023-03-11T18:48:10.194Z,99.90
2023-03-11T18:50:36.897Z,99.90
2023-03-11T18:53:03.793Z,99.90
2023-03-11T18:55:30.516Z,99.90
2023-03-11T18:57:57.195Z,99.90
2023-03-11T19:00:24.096Z,99.90
2023-03-11T19:02:54.758Z,99.90
2023-03-11T19:05:21.622Z,99.90
2023-03-11T19:07:48.427Z,99.90
2023-03-11T19:10:18.208Z,99.90
2023-03-11T19:12:45.291Z,99.90
2023-03-11T19:15:12.717Z,99.90
2023-03-11T19:17:39.524Z,99.90
2023-03-11T19:20:09.668Z,99.90
2023-03-11T19:22:37.047Z,99.90
2023-03-11T19:25:05.043Z,99.90
2023-03-11T19:27:32.199Z,99.90
2023-03-11T19:29:58.969Z,99.90
2023-03-11T19:32:25.701Z,99.90
2023-03-11T19:34:52.373Z,99.90
2023-03-11T19:37:19.135Z,99.90
2023-03-11T19:39:45.881Z,99.90
2023-03-11T19:42:12.564Z,99.90
2023-03-11T19:44:39.360Z,99.90
2023-03-11T19:47:06.185Z,99.90
2023-03-11T19:49:33.005Z,99.90
2023-03-11T19:51:59.720Z,99.90
2023-03-11T19:54:26.513Z,99.90
2023-03-11T19:56:53.234Z,99.90
2023-03-11T19:59:20.070Z,99.90
2023-03-11T20:01:47.011Z,99.90
2023-03-11T20:04:15.127Z,99.90
2023-03-11T20:06:42.231Z,99.90
2023-03-11T20:09:09.235Z,99.90
2023-03-11T20:11:40.563Z,99.90
2023-03-11T20:14:08.024Z,99.90
2023-03-11T20:16:34.893Z,99.90
2023-03-11T20:19:01.683Z,99.90
2023-03-11T20:21:28.479Z,99.90
2023-03-11T20:23:57.139Z,99.90
2023-03-11T20:26:24.852Z,99.90
2023-03-11T20:28:56.050Z,99.90
2023-03-11T20:31:25.193Z,99.90
2023-03-11T20:33:52.661Z,99.90
2023-03-11T20:36:25.284Z,99.90
2023-03-11T20:38:54.195Z,99.90
2023-03-11T20:41:23.437Z,99.90
2023-03-11T20:43:57.235Z,99.90
2023-03-11T20:46:24.442Z,99.90
2023-03-11T20:48:51.287Z,99.90
2023-03-11T20:51:20.544Z,99.90
2023-03-11T20:53:48.040Z,99.90
2023-03-11T20:56:18.508Z,99.90
2023-03-11T20:58:46.044Z,99.90
2023-03-11T21:01:23.953Z,99.90
2023-03-11T21:03:54.091Z,99.90
2023-03-11T21:06:24.971Z,99.90
2023-03-11T21:08:54.983Z,99.90
2023-03-11T21:11:23.263Z,99.90
2023-03-11T21:13:50.666Z,99.90
2023-03-11T21:16:17.755Z,99.90
2023-03-11T21:18:48.596Z,99.90
2023-03-11T21:21:17.715Z,99.90
2023-03-11T21:23:45.394Z,99.90
2023-03-11T21:26:14.591Z,99.90
2023-03-11T21:28:46.186Z,99.90
2023-03-11T21:31:16.153Z,99.90
2023-03-11T21:33:43.318Z,99.90
2023-03-11T21:36:12.010Z,99.90
2023-03-11T21:38:40.592Z,99.90
2023-03-11T21:41:18.842Z,99.90
2023-03-11T21:43:46.451Z,99.90
2023-03-11T21:46:16.247Z,99.90
2023-03-11T21:48:43.815Z,99.90
2023-03-11T21:51:10.799Z,99.90
2023-03-11T21:53:37.941Z,99.90
2023-03-11T21:56:05.322Z,99.90
2023-03-11T21:58:33.091Z,99.60
2023-03-11T22:01:00.888Z,97.20
2023-03-11T22:03:28.125Z,97.40
2023-03-11T22:05:59.182Z,96.30
2023-03-11T22:08:26.650Z,96.30
2023-03-11T22:10:53.944Z,96.20
2023-03-11T22:13:21.290Z,95.60
2023-03-11T22:15:48.098Z,96.20
2023-03-11T22:18:14.825Z,96.50
2023-03-11T22:20:43.291Z,95.80
2023-03-11T22:23:10.772Z,95.50
2023-03-11T22:25:37.487Z,95.50
2023-03-11T22:28:04.631Z,95.60
2023-03-11T22:30:31.645Z,96.30
2023-03-11T22:32:58.407Z,96.90
2023-03-11T22:35:25.155Z,97.80
2023-03-11T22:38:44.208Z,97.80
2023-03-11T22:41:12.591Z,98.30
2023-03-11T22:43:41.464Z,98.80
2023-03-11T22:46:08.196Z,98.90
2023-03-11T22:48:35.138Z,98.50
2023-03-11T22:51:02.316Z,98.30
2023-03-11T22:53:29.203Z,98.10
2023-03-11T22:55:56.095Z,98.40
2023-03-11T22:58:22.879Z,99.10
2023-03-11T23:00:49.593Z,99.10
2023-03-11T23:03:16.518Z,99.40
2023-03-11T23:05:45.751Z,99.00
2023-03-11T23:08:15.380Z,97.50
2023-03-11T23:10:44.379Z,96.80
2023-03-11T23:13:12.150Z,96.20
2023-03-11T23:15:43.920Z,97.00
2023-03-11T23:18:11.309Z,98.70
2023-03-11T23:20:40.370Z,99.80
2023-03-11T23:23:07.490Z,99.90
2023-03-11T23:25:35.373Z,99.80
2023-03-11T23:28:06.824Z,99.60
2023-03-11T23:30:33.671Z,99.00
2023-03-11T23:33:02.865Z,98.60
2023-03-11T23:35:30.621Z,98.30
2023-03-11T23:37:57.550Z,98.00
2023-03-11T23:40:24.654Z,98.60
2023-03-11T23:42:51.368Z,98.50
2023-03-11T23:45:18.285Z,98.50
2023-03-11T23:47:44.970Z,98.80
2023-03-11T23:50:11.928Z,98.70
2023-03-11T23:52:38.666Z,99.00
2023-03-11T23:55:05.899Z,98.80
2023-03-11T23:57:35.523Z,98.10
